Terminal Aerodrome Forecast
Issued by NWS Omaha/Valley, NE

Home | Current Version | Previous Version | Text Only | Print | Product List | Glossary On
Versions: 1 2 3 4 5 6 7 8 9 10 11 12 13 14 15 16 17 18 19 20 21
000
FTUS43 KOAX 261120
TAFOMA
TAF
KOMA 261120Z 2612/2712 12005KT P6SM BKN250
     FM270400 11005KT P6SM OVC020 PROB30 2705/2708 4SM -TSRA
      OVC007CB
     FM270800 13004KT 2SM -SHRA VCTS OVC003CB
     FM271100 16005KT P6SM BKN003=

USA.gov is the U.S. government's official web portal to all federal, state and local government web resources and services.